sensor_id;sensor_type;location;lat;lon;timestamp;P1;durP1;ratioP1;P2;durP2;ratioP2
34144;SDS011;20422;53.014;8.886;2022-09-12T00:00:29;6.47;;;3.83;;
34144;SDS011;20422;53.014;8.886;2022-09-12T00:02:57;5.57;;;3.97;;
34144;SDS011;20422;53.014;8.886;2022-09-12T00:05:24;7.43;;;4.80;;
34144;SDS011;20422;53.014;8.886;2022-09-12T00:07:50;6.45;;;4.50;;
34144;SDS011;20422;53.014;8.886;2022-09-12T00:10:15;6.85;;;4.95;;
34144;SDS011;20422;53.014;8.886;2022-09-12T00:12:41;4.25;;;3.85;;
34144;SDS011;20422;53.014;8.886;2022-09-12T00:15:06;7.95;;;4.32;;
34144;SDS011;20422;53.014;8.886;2022-09-12T00:17:33;5.50;;;4.80;;
34144;SDS011;20422;53.014;8.886;2022-09-12T00:19:59;5.28;;;4.78;;
34144;SDS011;20422;53.014;8.886;2022-09-12T00:22:25;6.15;;;5.05;;
34144;SDS011;20422;53.014;8.886;2022-09-12T00:24:50;6.55;;;5.10;;
34144;SDS011;20422;53.014;8.886;2022-09-12T00:27:15;7.43;;;5.00;;
34144;SDS011;20422;53.014;8.886;2022-09-12T00:29:41;8.55;;;6.30;;
34144;SDS011;20422;53.014;8.886;2022-09-12T00:32:06;8.57;;;5.65;;
34144;SDS011;20422;53.014;8.886;2022-09-12T00:34:32;6.97;;;5.13;;
34144;SDS011;20422;53.014;8.886;2022-09-12T00:36:57;5.63;;;5.03;;
34144;SDS011;20422;53.014;8.886;2022-09-12T00:39:22;5.88;;;5.28;;
34144;SDS011;20422;53.014;8.886;2022-09-12T00:41:48;9.63;;;5.88;;
34144;SDS011;20422;53.014;8.886;2022-09-12T00:49:14;7.80;;;6.95;;
34144;SDS011;20422;53.014;8.886;2022-09-12T00:51:44;8.13;;;7.13;;
34144;SDS011;20422;53.014;8.886;2022-09-12T00:54:16;8.02;;;7.22;;
34144;SDS011;20422;53.014;8.886;2022-09-12T00:56:45;7.93;;;6.32;;
34144;SDS011;20422;53.014;8.886;2022-09-12T00:59:15;7.35;;;6.30;;
34144;SDS011;20422;53.014;8.886;2022-09-12T01:01:45;8.57;;;6.00;;
34144;SDS011;20422;53.014;8.886;2022-09-12T01:04:13;5.47;;;4.95;;
34144;SDS011;20422;53.014;8.886;2022-09-12T01:06:41;6.18;;;4.90;;
34144;SDS011;20422;53.014;8.886;2022-09-12T01:09:12;10.43;;;8.15;;
34144;SDS011;20422;53.014;8.886;2022-09-12T01:11:41;12.95;;;7.30;;
34144;SDS011;20422;53.014;8.886;2022-09-12T01:14:10;12.63;;;7.77;;
34144;SDS011;20422;53.014;8.886;2022-09-12T01:16:35;9.73;;;8.23;;
34144;SDS011;20422;53.014;8.886;2022-09-12T01:27:12;18.98;;;14.82;;
34144;SDS011;20422;53.014;8.886;2022-09-12T01:32:42;15.38;;;11.95;;
34144;SDS011;20422;53.014;8.886;2022-09-12T01:35:24;14.50;;;11.70;;
34144;SDS011;20422;53.014;8.886;2022-09-12T01:46:14;14.55;;;13.05;;
34144;SDS011;20422;53.014;8.886;2022-09-12T01:51:21;16.13;;;13.43;;
34144;SDS011;20422;53.014;8.886;2022-09-12T01:53:51;16.75;;;12.98;;
34144;SDS011;20422;53.014;8.886;2022-09-12T01:56:22;16.77;;;13.98;;
34144;SDS011;20422;53.014;8.886;2022-09-12T02:01:40;17.42;;;13.40;;
34144;SDS011;20422;53.014;8.886;2022-09-12T02:09:35;19.15;;;14.15;;
34144;SDS011;20422;53.014;8.886;2022-09-12T02:12:04;16.85;;;13.55;;
34144;SDS011;20422;53.014;8.886;2022-09-12T02:14:38;18.08;;;13.82;;
34144;SDS011;20422;53.014;8.886;2022-09-12T02:17:11;21.15;;;14.13;;
34144;SDS011;20422;53.014;8.886;2022-09-12T02:19:43;16.45;;;13.15;;
34144;SDS011;20422;53.014;8.886;2022-09-12T02:22:12;16.33;;;12.50;;
34144;SDS011;20422;53.014;8.886;2022-09-12T02:24:42;13.63;;;11.02;;
34144;SDS011;20422;53.014;8.886;2022-09-12T02:29:45;16.85;;;11.52;;
34144;SDS011;20422;53.014;8.886;2022-09-12T02:35:13;26.63;;;15.48;;
34144;SDS011;20422;53.014;8.886;2022-09-12T02:40:28;16.85;;;11.95;;
34144;SDS011;20422;53.014;8.886;2022-09-12T02:42:54;15.80;;;13.88;;
34144;SDS011;20422;53.014;8.886;2022-09-12T02:45:20;14.05;;;12.55;;
34144;SDS011;20422;53.014;8.886;2022-09-12T02:50:24;14.85;;;12.02;;
34144;SDS011;20422;53.014;8.886;2022-09-12T02:52:50;17.80;;;15.10;;
34144;SDS011;20422;53.014;8.886;2022-09-12T02:55:18;17.35;;;13.75;;
34144;SDS011;20422;53.014;8.886;2022-09-12T02:57:44;17.67;;;13.38;;
34144;SDS011;20422;53.014;8.886;2022-09-12T03:00:09;13.45;;;12.00;;
34144;SDS011;20422;53.014;8.886;2022-09-12T03:10:49;15.65;;;12.95;;
34144;SDS011;20422;53.014;8.886;2022-09-12T03:21:44;14.50;;;12.88;;
34144;SDS011;20422;53.014;8.886;2022-09-12T03:24:35;17.67;;;13.52;;
34144;SDS011;20422;53.014;8.886;2022-09-12T03:27:16;16.27;;;13.25;;
34144;SDS011;20422;53.014;8.886;2022-09-12T03:29:47;16.92;;;12.90;;
34144;SDS011;20422;53.014;8.886;2022-09-12T03:32:14;17.05;;;13.10;;
34144;SDS011;20422;53.014;8.886;2022-09-12T03:34:40;14.25;;;12.73;;
34144;SDS011;20422;53.014;8.886;2022-09-12T03:37:05;15.57;;;13.38;;
34144;SDS011;20422;53.014;8.886;2022-09-12T03:39:31;14.20;;;12.20;;
34144;SDS011;20422;53.014;8.886;2022-09-12T03:41:56;16.35;;;14.65;;
34144;SDS011;20422;53.014;8.886;2022-09-12T03:44:22;17.25;;;14.77;;
34144;SDS011;20422;53.014;8.886;2022-09-12T03:46:48;17.10;;;14.57;;
34144;SDS011;20422;53.014;8.886;2022-09-12T03:49:13;18.65;;;16.10;;
34144;SDS011;20422;53.014;8.886;2022-09-12T03:51:39;19.42;;;17.02;;
34144;SDS011;20422;53.014;8.886;2022-09-12T03:54:05;19.00;;;16.98;;
34144;SDS011;20422;53.014;8.886;2022-09-12T03:56:30;19.52;;;15.25;;
34144;SDS011;20422;53.014;8.886;2022-09-12T03:58:56;18.73;;;15.75;;
34144;SDS011;20422;53.014;8.886;2022-09-12T04:01:21;17.75;;;15.00;;
34144;SDS011;20422;53.014;8.886;2022-09-12T04:03:48;18.40;;;14.60;;
34144;SDS011;20422;53.014;8.886;2022-09-12T04:06:15;17.63;;;14.27;;
34144;SDS011;20422;53.014;8.886;2022-09-12T04:08:45;16.55;;;13.85;;
34144;SDS011;20422;53.014;8.886;2022-09-12T04:11:13;19.92;;;14.75;;
34144;SDS011;20422;53.014;8.886;2022-09-12T04:13:40;15.77;;;14.00;;
34144;SDS011;20422;53.014;8.886;2022-09-12T04:16:06;20.80;;;16.08;;
34144;SDS011;20422;53.014;8.886;2022-09-12T04:18:32;17.25;;;14.60;;
34144;SDS011;20422;53.014;8.886;2022-09-12T04:20:57;15.60;;;13.27;;
34144;SDS011;20422;53.014;8.886;2022-09-12T04:23:23;15.90;;;14.07;;
34144;SDS011;20422;53.014;8.886;2022-09-12T04:25:52;19.63;;;16.05;;
34144;SDS011;20422;53.014;8.886;2022-09-12T04:28:21;22.80;;;16.35;;
34144;SDS011;20422;53.014;8.886;2022-09-12T04:30:47;18.33;;;16.27;;
34144;SDS011;20422;53.014;8.886;2022-09-12T04:33:12;17.60;;;14.70;;
34144;SDS011;20422;53.014;8.886;2022-09-12T04:35:38;17.35;;;13.38;;
34144;SDS011;20422;53.014;8.886;2022-09-12T04:38:03;17.95;;;15.32;;
34144;SDS011;20422;53.014;8.886;2022-09-12T04:40:29;20.30;;;16.15;;
34144;SDS011;20422;53.014;8.886;2022-09-12T04:42:55;19.80;;;17.48;;
34144;SDS011;20422;53.014;8.886;2022-09-12T04:45:21;18.45;;;16.45;;
34144;SDS011;20422;53.014;8.886;2022-09-12T04:47:47;19.95;;;16.95;;
34144;SDS011;20422;53.014;8.886;2022-09-12T04:50:12;19.92;;;15.82;;
34144;SDS011;20422;53.014;8.886;2022-09-12T04:52:39;19.83;;;15.63;;
34144;SDS011;20422;53.014;8.886;2022-09-12T04:55:05;18.95;;;16.00;;
34144;SDS011;20422;53.014;8.886;2022-09-12T04:57:30;22.75;;;16.63;;
34144;SDS011;20422;53.014;8.886;2022-09-12T04:59:56;17.67;;;15.57;;
34144;SDS011;20422;53.014;8.886;2022-09-12T05:02:21;19.38;;;16.15;;
34144;SDS011;20422;53.014;8.886;2022-09-12T05:04:46;18.20;;;16.25;;
34144;SDS011;20422;53.014;8.886;2022-09-12T05:07:12;21.00;;;16.77;;
34144;SDS011;20422;53.014;8.886;2022-09-12T05:09:37;20.30;;;17.08;;
34144;SDS011;20422;53.014;8.886;2022-09-12T05:12:05;16.48;;;14.73;;
34144;SDS011;20422;53.014;8.886;2022-09-12T05:14:31;23.00;;;16.30;;
34144;SDS011;20422;53.014;8.886;2022-09-12T05:16:57;19.02;;;16.42;;
34144;SDS011;20422;53.014;8.886;2022-09-12T05:19:24;22.00;;;16.20;;
34144;SDS011;20422;53.014;8.886;2022-09-12T05:21:50;18.17;;;16.20;;
34144;SDS011;20422;53.014;8.886;2022-09-12T05:24:15;17.20;;;14.73;;
34144;SDS011;20422;53.014;8.886;2022-09-12T05:26:41;18.13;;;14.50;;
34144;SDS011;20422;53.014;8.886;2022-09-12T05:29:06;16.27;;;13.98;;
34144;SDS011;20422;53.014;8.886;2022-09-12T05:31:31;19.30;;;14.93;;
34144;SDS011;20422;53.014;8.886;2022-09-12T05:33:57;15.70;;;14.00;;
34144;SDS011;20422;53.014;8.886;2022-09-12T05:36:23;20.35;;;13.13;;
34144;SDS011;20422;53.014;8.886;2022-09-12T05:38:50;20.33;;;14.50;;
34144;SDS011;20422;53.014;8.886;2022-09-12T05:41:17;17.13;;;13.32;;
34144;SDS011;20422;53.014;8.886;2022-09-12T05:43:50;16.42;;;14.15;;
34144;SDS011;20422;53.014;8.886;2022-09-12T05:46:18;15.63;;;13.10;;
34144;SDS011;20422;53.014;8.886;2022-09-12T05:48:44;18.73;;;12.75;;
34144;SDS011;20422;53.014;8.886;2022-09-12T05:51:15;16.00;;;12.40;;
34144;SDS011;20422;53.014;8.886;2022-09-12T05:53:43;15.73;;;10.00;;
34144;SDS011;20422;53.014;8.886;2022-09-12T05:56:11;11.45;;;10.05;;
34144;SDS011;20422;53.014;8.886;2022-09-12T05:58:39;16.15;;;9.80;;
34144;SDS011;20422;53.014;8.886;2022-09-12T06:01:07;10.10;;;8.70;;
34144;SDS011;20422;53.014;8.886;2022-09-12T06:03:35;9.60;;;6.90;;
34144;SDS011;20422;53.014;8.886;2022-09-12T06:06:05;8.68;;;7.78;;
34144;SDS011;20422;53.014;8.886;2022-09-12T06:08:31;9.52;;;7.65;;
34144;SDS011;20422;53.014;8.886;2022-09-12T06:10:58;7.80;;;6.95;;
34144;SDS011;20422;53.014;8.886;2022-09-12T06:13:25;7.28;;;6.22;;
34144;SDS011;20422;53.014;8.886;2022-09-12T06:15:50;7.13;;;6.43;;
34144;SDS011;20422;53.014;8.886;2022-09-12T06:18:15;7.35;;;6.65;;
34144;SDS011;20422;53.014;8.886;2022-09-12T06:20:45;8.82;;;6.38;;
34144;SDS011;20422;53.014;8.886;2022-09-12T06:23:10;7.75;;;6.75;;
34144;SDS011;20422;53.014;8.886;2022-09-12T06:25:36;9.88;;;6.60;;
34144;SDS011;20422;53.014;8.886;2022-09-12T06:28:02;8.93;;;6.55;;
34144;SDS011;20422;53.014;8.886;2022-09-12T06:30:28;9.40;;;6.93;;
34144;SDS011;20422;53.014;8.886;2022-09-12T06:32:54;11.82;;;7.20;;
34144;SDS011;20422;53.014;8.886;2022-09-12T06:35:20;9.30;;;7.18;;
34144;SDS011;20422;53.014;8.886;2022-09-12T06:37:47;9.38;;;7.38;;
34144;SDS011;20422;53.014;8.886;2022-09-12T06:40:12;9.05;;;8.10;;
34144;SDS011;20422;53.014;8.886;2022-09-12T06:42:38;10.30;;;7.40;;
34144;SDS011;20422;53.014;8.886;2022-09-12T06:45:03;8.88;;;7.45;;
34144;SDS011;20422;53.014;8.886;2022-09-12T06:47:29;10.38;;;7.95;;
34144;SDS011;20422;53.014;8.886;2022-09-12T06:49:54;9.43;;;8.43;;
34144;SDS011;20422;53.014;8.886;2022-09-12T06:52:19;9.00;;;7.85;;
34144;SDS011;20422;53.014;8.886;2022-09-12T06:54:44;11.50;;;8.65;;
34144;SDS011;20422;53.014;8.886;2022-09-12T06:57:11;10.90;;;8.52;;
34144;SDS011;20422;53.014;8.886;2022-09-12T06:59:37;9.80;;;8.35;;
34144;SDS011;20422;53.014;8.886;2022-09-12T07:02:02;10.60;;;8.55;;
34144;SDS011;20422;53.014;8.886;2022-09-12T07:04:27;11.85;;;10.57;;
34144;SDS011;20422;53.014;8.886;2022-09-12T07:06:53;11.43;;;9.77;;
34144;SDS011;20422;53.014;8.886;2022-09-12T07:09:18;13.88;;;9.43;;
34144;SDS011;20422;53.014;8.886;2022-09-12T07:11:45;16.27;;;11.32;;
34144;SDS011;20422;53.014;8.886;2022-09-12T07:14:13;13.35;;;10.65;;
34144;SDS011;20422;53.014;8.886;2022-09-12T07:16:40;18.08;;;10.57;;
34144;SDS011;20422;53.014;8.886;2022-09-12T07:19:07;13.80;;;11.13;;
34144;SDS011;20422;53.014;8.886;2022-09-12T07:21:34;15.60;;;11.88;;
34144;SDS011;20422;53.014;8.886;2022-09-12T07:24:05;14.20;;;11.30;;
34144;SDS011;20422;53.014;8.886;2022-09-12T07:26:31;15.77;;;12.77;;
34144;SDS011;20422;53.014;8.886;2022-09-12T07:28:58;13.80;;;11.75;;
34144;SDS011;20422;53.014;8.886;2022-09-12T07:31:25;15.23;;;12.50;;
34144;SDS011;20422;53.014;8.886;2022-09-12T07:33:53;15.05;;;13.00;;
34144;SDS011;20422;53.014;8.886;2022-09-12T07:36:19;18.83;;;12.57;;
34144;SDS011;20422;53.014;8.886;2022-09-12T07:38:47;15.85;;;12.70;;
34144;SDS011;20422;53.014;8.886;2022-09-12T07:41:21;14.68;;;12.52;;
34144;SDS011;20422;53.014;8.886;2022-09-12T07:43:56;17.65;;;13.23;;
34144;SDS011;20422;53.014;8.886;2022-09-12T07:46:28;16.13;;;13.75;;
34144;SDS011;20422;53.014;8.886;2022-09-12T07:48:57;19.58;;;14.93;;
34144;SDS011;20422;53.014;8.886;2022-09-12T07:51:25;16.90;;;13.35;;
34144;SDS011;20422;53.014;8.886;2022-09-12T07:53:54;15.10;;;13.27;;
34144;SDS011;20422;53.014;8.886;2022-09-12T07:56:22;19.83;;;14.95;;
34144;SDS011;20422;53.014;8.886;2022-09-12T07:58:49;17.60;;;14.82;;
34144;SDS011;20422;53.014;8.886;2022-09-12T08:01:17;18.05;;;15.20;;
34144;SDS011;20422;53.014;8.886;2022-09-12T08:03:46;18.50;;;15.02;;
34144;SDS011;20422;53.014;8.886;2022-09-12T08:06:17;19.25;;;16.02;;
34144;SDS011;20422;53.014;8.886;2022-09-12T08:08:45;19.55;;;16.10;;
34144;SDS011;20422;53.014;8.886;2022-09-12T08:11:14;21.65;;;17.20;;
34144;SDS011;20422;53.014;8.886;2022-09-12T08:13:42;22.05;;;16.70;;
34144;SDS011;20422;53.014;8.886;2022-09-12T08:16:13;25.77;;;17.60;;
34144;SDS011;20422;53.014;8.886;2022-09-12T08:18:43;25.15;;;19.23;;
34144;SDS011;20422;53.014;8.886;2022-09-12T08:21:13;29.55;;;20.67;;
34144;SDS011;20422;53.014;8.886;2022-09-12T08:23:44;25.73;;;19.92;;
34144;SDS011;20422;53.014;8.886;2022-09-12T08:26:12;32.78;;;20.27;;
34144;SDS011;20422;53.014;8.886;2022-09-12T08:28:39;26.35;;;19.35;;
34144;SDS011;20422;53.014;8.886;2022-09-12T08:31:11;26.90;;;19.45;;
34144;SDS011;20422;53.014;8.886;2022-09-12T08:36:13;25.95;;;19.67;;
34144;SDS011;20422;53.014;8.886;2022-09-12T08:38:46;32.90;;;21.63;;
34144;SDS011;20422;53.014;8.886;2022-09-12T08:49:28;28.05;;;21.00;;
34144;SDS011;20422;53.014;8.886;2022-09-12T08:52:01;31.52;;;21.73;;
34144;SDS011;20422;53.014;8.886;2022-09-12T08:54:44;24.60;;;19.58;;
34144;SDS011;20422;53.014;8.886;2022-09-12T08:57:11;27.48;;;21.15;;
34144;SDS011;20422;53.014;8.886;2022-09-12T08:59:45;27.77;;;20.63;;
34144;SDS011;20422;53.014;8.886;2022-09-12T09:02:21;28.45;;;20.38;;
34144;SDS011;20422;53.014;8.886;2022-09-12T09:05:12;30.90;;;22.63;;
34144;SDS011;20422;53.014;8.886;2022-09-12T09:11:04;29.42;;;21.75;;
34144;SDS011;20422;53.014;8.886;2022-09-12T09:16:42;29.95;;;21.58;;
34144;SDS011;20422;53.014;8.886;2022-09-12T09:19:15;34.10;;;22.65;;
34144;SDS011;20422;53.014;8.886;2022-09-12T09:22:00;33.83;;;22.63;;
34144;SDS011;20422;53.014;8.886;2022-09-12T09:24:33;34.45;;;22.42;;
34144;SDS011;20422;53.014;8.886;2022-09-12T09:27:25;30.48;;;23.45;;
34144;SDS011;20422;53.014;8.886;2022-09-12T09:29:59;33.88;;;22.08;;
34144;SDS011;20422;53.014;8.886;2022-09-12T09:32:30;30.67;;;21.90;;
34144;SDS011;20422;53.014;8.886;2022-09-12T09:35:15;30.13;;;21.45;;
34144;SDS011;20422;53.014;8.886;2022-09-12T09:38:13;29.42;;;20.77;;
34144;SDS011;20422;53.014;8.886;2022-09-12T09:46:09;32.95;;;20.75;;
34144;SDS011;20422;53.014;8.886;2022-09-12T09:48:36;29.67;;;19.98;;
34144;SDS011;20422;53.014;8.886;2022-09-12T09:51:06;29.38;;;19.77;;
34144;SDS011;20422;53.014;8.886;2022-09-12T09:53:44;26.98;;;18.85;;
34144;SDS011;20422;53.014;8.886;2022-09-12T09:56:14;25.05;;;17.45;;
34144;SDS011;20422;53.014;8.886;2022-09-12T09:58:54;26.40;;;18.95;;
34144;SDS011;20422;53.014;8.886;2022-09-12T10:01:20;26.33;;;17.20;;
34144;SDS011;20422;53.014;8.886;2022-09-12T10:03:49;18.83;;;15.15;;
34144;SDS011;20422;53.014;8.886;2022-09-12T10:08:45;18.52;;;13.25;;
34144;SDS011;20422;53.014;8.886;2022-09-12T10:14:00;17.42;;;12.35;;
34144;SDS011;20422;53.014;8.886;2022-09-12T10:16:32;16.17;;;11.82;;
34144;SDS011;20422;53.014;8.886;2022-09-12T10:19:11;18.20;;;12.05;;
34144;SDS011;20422;53.014;8.886;2022-09-12T10:21:52;19.13;;;13.85;;
34144;SDS011;20422;53.014;8.886;2022-09-12T10:24:35;18.10;;;11.00;;
34144;SDS011;20422;53.014;8.886;2022-09-12T10:27:07;18.95;;;11.25;;
34144;SDS011;20422;53.014;8.886;2022-09-12T10:29:34;16.40;;;10.82;;
34144;SDS011;20422;53.014;8.886;2022-09-12T10:32:10;15.18;;;9.00;;
34144;SDS011;20422;53.014;8.886;2022-09-12T10:34:39;15.60;;;9.45;;
34144;SDS011;20422;53.014;8.886;2022-09-12T10:37:08;10.50;;;8.25;;
34144;SDS011;20422;53.014;8.886;2022-09-12T10:39:40;16.15;;;9.45;;
34144;SDS011;20422;53.014;8.886;2022-09-12T10:42:16;12.20;;;7.82;;
34144;SDS011;20422;53.014;8.886;2022-09-12T10:44:42;9.98;;;7.07;;
34144;SDS011;20422;53.014;8.886;2022-09-12T10:47:18;11.48;;;7.82;;
34144;SDS011;20422;53.014;8.886;2022-09-12T10:49:46;13.98;;;6.80;;
34144;SDS011;20422;53.014;8.886;2022-09-12T10:52:29;11.68;;;7.03;;
34144;SDS011;20422;53.014;8.886;2022-09-12T10:54:55;9.13;;;6.03;;
34144;SDS011;20422;53.014;8.886;2022-09-12T10:57:31;9.43;;;6.03;;
34144;SDS011;20422;53.014;8.886;2022-09-12T11:00:15;12.55;;;6.90;;
34144;SDS011;20422;53.014;8.886;2022-09-12T11:02:50;13.40;;;7.55;;
34144;SDS011;20422;53.014;8.886;2022-09-12T11:05:42;12.93;;;6.15;;
34144;SDS011;20422;53.014;8.886;2022-09-12T11:19:54;7.32;;;4.93;;
34144;SDS011;20422;53.014;8.886;2022-09-12T11:34:15;9.73;;;5.18;;
34144;SDS011;20422;53.014;8.886;2022-09-12T11:39:30;10.52;;;3.47;;
34144;SDS011;20422;53.014;8.886;2022-09-12T11:42:04;9.23;;;4.15;;
34144;SDS011;20422;53.014;8.886;2022-09-12T11:44:38;6.28;;;4.32;;
34144;SDS011;20422;53.014;8.886;2022-09-12T11:47:07;6.13;;;4.43;;
34144;SDS011;20422;53.014;8.886;2022-09-12T11:49:40;6.03;;;3.72;;
34144;SDS011;20422;53.014;8.886;2022-09-12T11:52:15;3.20;;;2.90;;
34144;SDS011;20422;53.014;8.886;2022-09-12T11:57:58;5.45;;;3.28;;
34144;SDS011;20422;53.014;8.886;2022-09-12T12:00:31;4.85;;;2.80;;
34144;SDS011;20422;53.014;8.886;2022-09-12T12:08:23;6.50;;;3.65;;
34144;SDS011;20422;53.014;8.886;2022-09-12T12:10:51;4.50;;;2.10;;
34144;SDS011;20422;53.014;8.886;2022-09-12T12:16:06;4.93;;;2.35;;
34144;SDS011;20422;53.014;8.886;2022-09-12T12:18:45;3.08;;;2.50;;
34144;SDS011;20422;53.014;8.886;2022-09-12T12:21:20;4.18;;;2.67;;
34144;SDS011;20422;53.014;8.886;2022-09-12T12:34:28;5.68;;;2.28;;
34144;SDS011;20422;53.014;8.886;2022-09-12T12:39:59;3.42;;;2.10;;
34144;SDS011;20422;53.014;8.886;2022-09-12T12:48:10;3.25;;;1.80;;
34144;SDS011;20422;53.014;8.886;2022-09-12T12:50:43;5.28;;;2.17;;
34144;SDS011;20422;53.014;8.886;2022-09-12T12:53:22;4.03;;;1.50;;
34144;SDS011;20422;53.014;8.886;2022-09-12T12:55:53;1.90;;;1.75;;
34144;SDS011;20422;53.014;8.886;2022-09-12T13:01:36;4.90;;;1.60;;
34144;SDS011;20422;53.014;8.886;2022-09-12T13:04:10;3.35;;;1.60;;
34144;SDS011;20422;53.014;8.886;2022-09-12T13:44:24;2.00;;;1.42;;
34144;SDS011;20422;53.014;8.886;2022-09-12T13:46:52;8.13;;;3.70;;
34144;SDS011;20422;53.014;8.886;2022-09-12T13:52:03;5.63;;;3.05;;
34144;SDS011;20422;53.014;8.886;2022-09-12T13:54:34;22.77;;;13.55;;
34144;SDS011;20422;53.014;8.886;2022-09-12T13:57:04;11.32;;;7.70;;
34144;SDS011;20422;53.014;8.886;2022-09-12T13:59:38;28.30;;;23.17;;
34144;SDS011;20422;53.014;8.886;2022-09-12T14:02:24;7.90;;;6.13;;
34144;SDS011;20422;53.014;8.886;2022-09-12T14:04:53;16.38;;;10.52;;
34144;SDS011;20422;53.014;8.886;2022-09-12T14:07:56;3.28;;;1.77;;
34144;SDS011;20422;53.014;8.886;2022-09-12T14:10:36;10.98;;;9.85;;
34144;SDS011;20422;53.014;8.886;2022-09-12T14:13:25;8.85;;;7.60;;
34144;SDS011;20422;53.014;8.886;2022-09-12T14:15:52;21.25;;;17.60;;
34144;SDS011;20422;53.014;8.886;2022-09-12T14:18:26;7.40;;;3.58;;
34144;SDS011;20422;53.014;8.886;2022-09-12T14:20:57;3.70;;;2.10;;
34144;SDS011;20422;53.014;8.886;2022-09-12T14:23:31;5.45;;;2.97;;
34144;SDS011;20422;53.014;8.886;2022-09-12T14:26:02;2.85;;;2.33;;
34144;SDS011;20422;53.014;8.886;2022-09-12T14:28:32;5.90;;;4.50;;
34144;SDS011;20422;53.014;8.886;2022-09-12T14:31:06;2.47;;;1.92;;
34144;SDS011;20422;53.014;8.886;2022-09-12T14:33:47;4.50;;;1.80;;
34144;SDS011;20422;53.014;8.886;2022-09-12T14:36:55;3.80;;;1.90;;
34144;SDS011;20422;53.014;8.886;2022-09-12T14:42:04;4.75;;;2.05;;
34144;SDS011;20422;53.014;8.886;2022-09-12T14:44:35;3.67;;;1.65;;
34144;SDS011;20422;53.014;8.886;2022-09-12T14:47:20;2.85;;;1.95;;
34144;SDS011;20422;53.014;8.886;2022-09-12T14:49:49;4.10;;;2.05;;
34144;SDS011;20422;53.014;8.886;2022-09-12T14:52:24;3.13;;;2.00;;
34144;SDS011;20422;53.014;8.886;2022-09-12T14:58:07;2.10;;;1.73;;
34144;SDS011;20422;53.014;8.886;2022-09-12T15:06:00;4.68;;;1.90;;
34144;SDS011;20422;53.014;8.886;2022-09-12T15:08:28;3.35;;;1.60;;
34144;SDS011;20422;53.014;8.886;2022-09-12T15:10:53;2.40;;;1.58;;
34144;SDS011;20422;53.014;8.886;2022-09-12T15:13:20;3.20;;;2.30;;
34144;SDS011;20422;53.014;8.886;2022-09-12T15:15:48;2.00;;;1.73;;
34144;SDS011;20422;53.014;8.886;2022-09-12T15:18:15;5.75;;;2.33;;
34144;SDS011;20422;53.014;8.886;2022-09-12T15:20:42;2.45;;;2.13;;
34144;SDS011;20422;53.014;8.886;2022-09-12T15:23:17;4.15;;;2.00;;
34144;SDS011;20422;53.014;8.886;2022-09-12T15:25:44;3.38;;;2.05;;
34144;SDS011;20422;53.014;8.886;2022-09-12T15:28:17;2.63;;;1.90;;
34144;SDS011;20422;53.014;8.886;2022-09-12T15:30:45;2.97;;;2.33;;
34144;SDS011;20422;53.014;8.886;2022-09-12T15:33:11;4.53;;;2.42;;
34144;SDS011;20422;53.014;8.886;2022-09-12T15:36:04;2.58;;;2.17;;
34144;SDS011;20422;53.014;8.886;2022-09-12T15:38:40;2.60;;;2.20;;
34144;SDS011;20422;53.014;8.886;2022-09-12T15:41:21;8.60;;;2.70;;
34144;SDS011;20422;53.014;8.886;2022-09-12T15:44:11;3.40;;;2.38;;
34144;SDS011;20422;53.014;8.886;2022-09-12T15:46:57;3.55;;;2.10;;
34144;SDS011;20422;53.014;8.886;2022-09-12T15:49:33;3.35;;;2.17;;
34144;SDS011;20422;53.014;8.886;2022-09-12T15:54:55;3.13;;;2.33;;
34144;SDS011;20422;53.014;8.886;2022-09-12T15:57:36;3.47;;;2.10;;
34144;SDS011;20422;53.014;8.886;2022-09-12T16:00:06;5.13;;;2.30;;
34144;SDS011;20422;53.014;8.886;2022-09-12T16:02:56;7.75;;;2.75;;
34144;SDS011;20422;53.014;8.886;2022-09-12T16:05:31;5.72;;;2.65;;
34144;SDS011;20422;53.014;8.886;2022-09-12T16:08:00;3.17;;;2.30;;
34144;SDS011;20422;53.014;8.886;2022-09-12T16:10:26;3.75;;;2.58;;
34144;SDS011;20422;53.014;8.886;2022-09-12T16:12:56;2.63;;;2.05;;
34144;SDS011;20422;53.014;8.886;2022-09-12T16:15:36;3.35;;;2.42;;
34144;SDS011;20422;53.014;8.886;2022-09-12T16:18:44;3.58;;;2.63;;
34144;SDS011;20422;53.014;8.886;2022-09-12T16:21:28;3.67;;;2.03;;
34144;SDS011;20422;53.014;8.886;2022-09-12T16:24:09;4.93;;;2.40;;
34144;SDS011;20422;53.014;8.886;2022-09-12T16:26:41;4.10;;;2.60;;
34144;SDS011;20422;53.014;8.886;2022-09-12T16:29:19;5.57;;;2.70;;
34144;SDS011;20422;53.014;8.886;2022-09-12T16:31:59;5.05;;;2.60;;
34144;SDS011;20422;53.014;8.886;2022-09-12T16:34:53;6.28;;;2.95;;
34144;SDS011;20422;53.014;8.886;2022-09-12T16:38:05;5.95;;;2.60;;
34144;SDS011;20422;53.014;8.886;2022-09-12T16:43:35;7.45;;;3.20;;
34144;SDS011;20422;53.014;8.886;2022-09-12T16:49:26;7.68;;;3.00;;
34144;SDS011;20422;53.014;8.886;2022-09-12T16:51:59;5.82;;;3.00;;
34144;SDS011;20422;53.014;8.886;2022-09-12T16:54:44;9.57;;;2.60;;
34144;SDS011;20422;53.014;8.886;2022-09-12T17:00:08;4.05;;;2.92;;
34144;SDS011;20422;53.014;8.886;2022-09-12T17:03:00;4.38;;;3.10;;
34144;SDS011;20422;53.014;8.886;2022-09-12T17:08:42;7.78;;;3.20;;
34144;SDS011;20422;53.014;8.886;2022-09-12T17:11:10;4.10;;;3.15;;
34144;SDS011;20422;53.014;8.886;2022-09-12T17:13:38;3.67;;;2.90;;
34144;SDS011;20422;53.014;8.886;2022-09-12T17:16:04;4.88;;;2.97;;
34144;SDS011;20422;53.014;8.886;2022-09-12T17:18:31;6.15;;;3.40;;
34144;SDS011;20422;53.014;8.886;2022-09-12T17:20:57;7.10;;;3.22;;
34144;SDS011;20422;53.014;8.886;2022-09-12T17:23:24;7.32;;;2.80;;
34144;SDS011;20422;53.014;8.886;2022-09-12T17:25:52;7.00;;;3.38;;
34144;SDS011;20422;53.014;8.886;2022-09-12T17:28:18;3.53;;;2.83;;
34144;SDS011;20422;53.014;8.886;2022-09-12T17:30:44;3.25;;;2.80;;
34144;SDS011;20422;53.014;8.886;2022-09-12T17:33:10;5.63;;;3.63;;
34144;SDS011;20422;53.014;8.886;2022-09-12T17:35:36;5.35;;;3.25;;
34144;SDS011;20422;53.014;8.886;2022-09-12T17:38:03;6.18;;;3.90;;
34144;SDS011;20422;53.014;8.886;2022-09-12T17:40:29;4.97;;;3.60;;
34144;SDS011;20422;53.014;8.886;2022-09-12T17:42:56;4.15;;;3.30;;
34144;SDS011;20422;53.014;8.886;2022-09-12T17:45:25;6.45;;;3.42;;
34144;SDS011;20422;53.014;8.886;2022-09-12T17:47:52;5.95;;;4.30;;
34144;SDS011;20422;53.014;8.886;2022-09-12T17:50:19;14.25;;;4.70;;
34144;SDS011;20422;53.014;8.886;2022-09-12T17:52:45;12.15;;;4.18;;
34144;SDS011;20422;53.014;8.886;2022-09-12T17:55:12;9.63;;;4.03;;
34144;SDS011;20422;53.014;8.886;2022-09-12T17:57:43;9.07;;;4.20;;
34144;SDS011;20422;53.014;8.886;2022-09-12T18:00:33;8.60;;;4.07;;
34144;SDS011;20422;53.014;8.886;2022-09-12T18:07:00;6.43;;;4.15;;
34144;SDS011;20422;53.014;8.886;2022-09-12T18:09:27;7.68;;;3.03;;
34144;SDS011;20422;53.014;8.886;2022-09-12T18:11:54;3.97;;;3.25;;
34144;SDS011;20422;53.014;8.886;2022-09-12T18:14:20;5.38;;;3.63;;
34144;SDS011;20422;53.014;8.886;2022-09-12T18:19:41;6.53;;;3.90;;
34144;SDS011;20422;53.014;8.886;2022-09-12T18:25:55;5.95;;;3.78;;
34144;SDS011;20422;53.014;8.886;2022-09-12T18:28:52;6.90;;;4.40;;
34144;SDS011;20422;53.014;8.886;2022-09-12T18:31:20;8.93;;;4.68;;
34144;SDS011;20422;53.014;8.886;2022-09-12T18:33:54;6.30;;;3.80;;
34144;SDS011;20422;53.014;8.886;2022-09-12T18:36:47;6.07;;;3.75;;
34144;SDS011;20422;53.014;8.886;2022-09-12T18:42:34;6.55;;;3.65;;
34144;SDS011;20422;53.014;8.886;2022-09-12T18:45:28;5.75;;;4.00;;
34144;SDS011;20422;53.014;8.886;2022-09-12T18:47:55;6.13;;;3.15;;